Time;durP1;ratioP1;P1;durP2;ratioP2;P2;SDS_P1;SDS_P2;PMS_P1;PMS_P2;Temp;Humidity;BMP_temperature;BMP_pressure;BME280_temperature;BME280_humidity;BME280_pressure;Samples;Min_cycle;Max_cycle;Signal;HPM_P1;HPM_P2
2023/10/26 00:01:22;;;;;;;23.23;6.90;;;;;;;21.25;54.53;94241.00;5996631;29;109989;-70
2023/10/26 00:04:25;;;;;;;19.90;6.43;;;;;;;21.23;54.17;94257.28;6005543;28;109251;-70
2023/10/26 00:07:29;;;;;;;19.37;6.27;;;;;;;21.23;54.84;94235.22;5992874;29;108975;-69
2023/10/26 00:10:32;;;;;;;19.43;6.73;;;;;;;21.21;54.31;94248.84;5993564;29;109306;-70
2023/10/26 00:13:37;;;;;;;18.33;6.33;;;;;;;21.18;54.38;94234.28;5987512;29;110046;-71
2023/10/26 00:16:40;;;;;;;19.52;6.25;;;;;;;21.20;54.15;94239.28;5998185;29;109038;-71
2023/10/26 00:19:43;;;;;;;20.10;6.47;;;;;;;21.17;54.16;94250.53;5998196;29;109691;-71
2023/10/26 00:22:46;;;;;;;17.50;6.20;;;;;;;21.19;53.94;94262.47;6006885;28;109839;-69
2023/10/26 00:25:49;;;;;;;17.70;6.05;;;;;;;21.19;53.98;94257.13;6001963;29;109129;-72
2023/10/26 00:28:54;;;;;;;19.92;6.10;;;;;;;21.20;54.43;94256.03;5997099;28;109106;-70
2023/10/26 00:31:57;;;;;;;20.33;6.10;;;;;;;21.19;54.04;94246.50;5997753;29;109731;-70
2023/10/26 00:35:00;;;;;;;19.65;6.47;;;;;;;21.17;53.98;94235.41;5986900;29;109372;-69
2023/10/26 00:38:03;;;;;;;17.92;5.60;;;;;;;21.19;54.17;94235.06;5995584;29;109156;-71
2023/10/26 00:41:06;;;;;;;18.20;5.72;;;;;;;21.19;53.75;94230.53;6009261;28;109137;-71
2023/10/26 00:44:11;;;;;;;17.08;6.00;;;;;;;21.21;54.01;94232.88;5997393;29;109149;-70
2023/10/26 00:47:14;;;;;;;19.70;6.00;;;;;;;21.22;54.04;94237.09;6006212;29;109133;-70
2023/10/26 00:50:18;;;;;;;17.10;5.80;;;;;;;21.21;53.86;94228.31;5998859;28;109793;-71
2023/10/26 00:53:22;;;;;;;18.88;5.90;;;;;;;21.16;53.83;94225.81;5995569;29;109228;-71
2023/10/26 00:56:27;;;;;;;16.43;5.97;;;;;;;21.16;54.49;94225.81;5997284;29;110462;-71
2023/10/26 00:59:32;;;;;;;17.35;5.78;;;;;;;21.17;53.70;94235.41;5987189;29;109975;-71
2023/10/26 01:02:35;;;;;;;16.25;5.43;;;;;;;21.17;54.26;94234.59;5996030;29;109578;-71
2023/10/26 01:05:39;;;;;;;15.38;5.70;;;;;;;21.16;53.89;94241.78;5997216;29;109414;-71
2023/10/26 01:08:42;;;;;;;18.58;5.40;;;;;;;21.14;53.50;94221.94;5990205;29;110097;-70
2023/10/26 01:11:45;;;;;;;16.60;5.45;;;;;;;21.13;53.57;94242.44;5992898;29;109296;-71
2023/10/26 01:14:50;;;;;;;20.07;5.73;;;;;;;21.16;53.15;94233.03;5996765;29;110420;-70
2023/10/26 01:17:53;;;;;;;15.07;4.90;;;;;;;21.12;53.71;94216.94;6020135;28;109269;-71
2023/10/26 01:20:56;;;;;;;16.17;5.50;;;;;;;21.12;53.47;94213.50;6001722;29;112255;-71
2023/10/26 01:24:01;;;;;;;13.88;5.00;;;;;;;21.15;53.19;94218.94;5995358;29;109297;-70
2023/10/26 01:27:05;;;;;;;14.00;5.00;;;;;;;21.15;53.49;94202.19;5996100;29;109391;-71
2023/10/26 01:30:10;;;;;;;14.13;5.10;;;;;;;21.13;53.25;94204.41;5995475;29;110291;-70
2023/10/26 01:33:14;;;;;;;13.93;4.80;;;;;;;21.13;52.91;94199.09;6010214;28;110707;-71
2023/10/26 01:36:17;;;;;;;13.83;4.67;;;;;;;21.15;53.10;94204.88;6010198;28;109188;-70
2023/10/26 01:39:22;;;;;;;15.50;5.10;;;;;;;21.17;53.03;94221.28;5995794;29;109000;-71
2023/10/26 01:42:27;;;;;;;12.70;4.90;;;;;;;21.14;52.97;94211.28;5991021;29;109126;-70
2023/10/26 01:45:30;;;;;;;14.40;4.90;;;;;;;21.14;53.20;94212.06;5990524;29;109408;-71
2023/10/26 01:48:33;;;;;;;11.85;4.55;;;;;;;21.10;53.05;94211.16;5995419;29;109092;-71
2023/10/26 01:51:36;;;;;;;15.20;5.05;;;;;;;21.10;52.86;94205.06;6007935;29;111642;-71
2023/10/26 01:54:41;;;;;;;14.13;4.90;;;;;;;21.10;52.79;94200.50;5992579;28;109252;-70
2023/10/26 01:57:44;;;;;;;13.13;5.13;;;;;;;21.13;53.11;94209.72;5995398;29;109589;-70
2023/10/26 02:00:47;;;;;;;14.20;5.00;;;;;;;21.13;52.76;94207.06;5996184;29;109349;-70
2023/10/26 02:03:51;;;;;;;13.68;4.78;;;;;;;21.12;52.73;94224.91;5995973;29;108898;-70
2023/10/26 02:06:54;;;;;;;13.20;4.70;;;;;;;21.13;52.96;94215.81;5985162;29;109753;-71
2023/10/26 02:09:59;;;;;;;11.65;4.90;;;;;;;21.11;52.47;94223.34;5994919;29;108959;-71
2023/10/26 02:13:03;;;;;;;13.88;5.30;;;;;;;21.08;52.72;94229.31;5994799;29;110261;-71
2023/10/26 02:16:07;;;;;;;13.70;4.40;;;;;;;21.07;52.53;94232.28;5995293;29;110133;-71
2023/10/26 02:19:10;;;;;;;13.05;4.22;;;;;;;21.07;52.91;94232.28;5985515;29;109302;-71
2023/10/26 02:22:14;;;;;;;10.68;4.07;;;;;;;21.10;52.56;94223.66;5994534;29;109272;-70
2023/10/26 02:25:20;;;;;;;11.45;4.65;;;;;;;21.07;52.79;94217.13;6005431;28;109186;-71
2023/10/26 02:28:23;;;;;;;10.57;4.43;;;;;;;21.06;52.73;94217.44;5986326;29;109133;-70
2023/10/26 02:31:26;;;;;;;10.25;4.20;;;;;;;21.07;52.67;94221.66;5993688;29;109016;-71
2023/10/26 02:34:29;;;;;;;14.47;5.10;;;;;;;21.08;52.42;94212.56;5993674;29;109059;-71
2023/10/26 02:37:38;;;;;;;13.35;4.70;;;;;;;21.08;52.25;94207.25;5995236;29;109431;-71
2023/10/26 02:40:42;;;;;;;12.15;4.68;;;;;;;21.07;52.51;94208.34;5984376;29;112439;-71
2023/10/26 02:43:47;;;;;;;10.88;4.60;;;;;;;21.06;52.58;94209.44;5993614;29;109178;-70
2023/10/26 02:46:50;;;;;;;13.13;4.30;;;;;;;21.05;52.65;94191.94;5994026;29;109142;-70
2023/10/26 02:49:53;;;;;;;12.75;4.30;;;;;;;21.05;52.79;94189.28;5993002;29;109205;-71
2023/10/26 02:52:57;;;;;;;11.80;4.47;;;;;;;21.05;52.52;94205.22;5982790;29;109256;-70
2023/10/26 02:56:01;;;;;;;11.90;4.20;;;;;;;21.05;52.47;94197.25;5992250;29;109573;-70
2023/10/26 02:59:06;;;;;;;14.73;4.65;;;;;;;21.04;52.36;94204.44;5991230;29;109323;-71
2023/10/26 03:02:09;;;;;;;11.15;5.22;;;;;;;21.05;52.36;94210.56;5985997;29;109250;-69
2023/10/26 03:05:13;;;;;;;15.27;6.50;;;;;;;21.03;52.49;94215.38;5988069;29;110173;-70
2023/10/26 03:08:16;;;;;;;13.50;8.48;;;;;;;21.01;52.78;94217.59;5993147;29;109256;-69
2023/10/26 03:11:21;;;;;;;13.73;6.60;;;;;;;21.00;52.57;94205.34;5994147;29;110516;-70
2023/10/26 03:14:25;;;;;;;12.75;6.47;;;;;;;21.06;51.95;94217.44;5982917;29;110234;-70
2023/10/26 03:17:28;;;;;;;11.45;6.13;;;;;;;21.06;51.97;94212.91;5994185;29;109123;-70
2023/10/26 03:20:33;;;;;;;10.77;5.10;;;;;;;21.06;51.96;94209.44;5992977;29;110771;-70
2023/10/26 03:23:36;;;;;;;10.77;5.30;;;;;;;21.04;52.44;94214.28;5992127;29;109291;-71
2023/10/26 03:26:41;;;;;;;11.68;5.25;;;;;;;21.04;52.42;94196.44;5980602;29;109343;-72
2023/10/26 03:29:44;;;;;;;14.80;6.30;;;;;;;21.11;52.03;94207.38;5992684;29;109435;-71
2023/10/26 03:32:47;;;;;;;41.63;37.80;;;;;;;21.12;51.94;94206.28;5992347;29;109159;-70
2023/10/26 03:35:50;;;;;;;48.53;44.42;;;;;;;21.09;53.04;94203.50;5988238;29;109003;-69
2023/10/26 03:38:53;;;;;;;26.52;23.77;;;;;;;20.53;53.69;94200.03;5985045;29;109205;-71
2023/10/26 03:41:58;;;;;;;31.77;28.48;;;;;;;20.72;53.10;94213.75;5992666;29;112411;-70
2023/10/26 03:45:01;;;;;;;26.73;23.13;;;;;;;20.70;53.44;94193.91;5992741;29;109260;-71
2023/10/26 03:48:05;;;;;;;19.65;15.45;;;;;;;20.57;53.62;94199.09;5985582;29;109093;-70
2023/10/26 03:51:11;;;;;;;21.00;16.30;;;;;;;20.73;53.05;94180.75;5996682;29;108935;-70
2023/10/26 03:54:14;;;;;;;20.98;15.77;;;;;;;20.86;52.96;94194.94;5996909;29;109295;-70
2023/10/26 03:57:18;;;;;;;22.05;17.23;;;;;;;20.88;53.16;94184.78;5995223;29;109294;-70
2023/10/26 04:00:22;;;;;;;21.67;16.53;;;;;;;20.93;52.98;94185.38;5986560;29;111985;-70
2023/10/26 04:03:25;;;;;;;19.55;13.20;;;;;;;20.91;53.75;94154.88;5995814;29;109977;-69
2023/10/26 04:06:30;;;;;;;17.13;9.30;;;;;;;20.73;54.55;94187.94;5995580;29;109183;-70
2023/10/26 04:09:34;;;;;;;17.70;9.48;;;;;;;20.85;54.25;94172.91;5996242;29;109317;-71
2023/10/26 04:12:38;;;;;;;17.45;8.70;;;;;;;21.05;53.72;94184.72;5984067;29;109342;-72
2023/10/26 04:15:41;;;;;;;15.60;8.73;;;;;;;21.20;53.96;94186.84;5994822;29;109068;-71
2023/10/26 04:18:44;;;;;;;14.60;7.60;;;;;;;21.25;52.93;94201.84;5996569;29;109345;-68
2023/10/26 04:21:48;;;;;;;19.65;8.30;;;;;;;21.28;53.67;94203.88;5988674;29;109122;-68
2023/10/26 04:24:51;;;;;;;12.43;6.47;;;;;;;21.21;53.35;94196.41;5991085;29;109421;-70
2023/10/26 04:27:56;;;;;;;13.10;6.20;;;;;;;20.90;54.35;94206.50;5994735;29;109699;-65
2023/10/26 04:30:59;;;;;;;11.15;5.97;;;;;;;20.75;54.68;94183.88;5996503;29;109284;-65
2023/10/26 04:34:03;;;;;;;15.48;6.38;;;;;;;20.67;54.52;94178.56;5986650;29;109919;-65
2023/10/26 04:37:06;;;;;;;11.00;5.63;;;;;;;20.70;54.52;94205.31;5996572;29;109384;-65
2023/10/26 04:40:10;;;;;;;14.45;5.95;;;;;;;20.68;54.65;94196.88;5996533;29;109258;-66
2023/10/26 04:43:15;;;;;;;11.50;5.57;;;;;;;20.62;54.82;94168.88;5996413;29;109268;-66
2023/10/26 04:46:18;;;;;;;14.27;6.03;;;;;;;20.56;54.87;94184.25;5987257;29;109395;-66
2023/10/26 04:49:21;;;;;;;15.95;5.90;;;;;;;20.61;54.99;94185.94;5973494;29;109258;-65
2023/10/26 04:52:24;;;;;;;10.82;5.53;;;;;;;20.55;55.14;94180.03;5981604;29;112578;-67
2023/10/26 04:55:30;;;;;;;12.82;5.80;;;;;;;20.56;54.79;94164.84;5991156;29;109334;-66
2023/10/26 04:58:35;;;;;;;12.55;6.05;;;;;;;20.64;54.24;94185.28;5989457;29;110163;-67
2023/10/26 05:01:38;;;;;;;12.68;6.13;;;;;;;20.60;55.03;94192.34;5995991;29;109391;-66
2023/10/26 05:04:43;;;;;;;11.43;5.60;;;;;;;20.53;54.77;94181.44;5995988;29;109454;-66
2023/10/26 05:07:46;;;;;;;11.63;5.57;;;;;;;20.51;54.79;94204.91;5985750;29;109132;-64
2023/10/26 05:10:49;;;;;;;12.60;5.33;;;;;;;20.55;54.96;94200.50;5995475;29;109308;-66
2023/10/26 05:13:54;;;;;;;13.98;5.80;;;;;;;20.53;55.12;94189.41;5995708;29;109560;-66
2023/10/26 05:16:57;;;;;;;12.30;4.80;;;;;;;20.50;55.12;94192.69;5995653;29;110106;-67
2023/10/26 05:20:00;;;;;;;10.37;5.40;;;;;;;20.58;54.46;94203.31;5985274;29;109132;-66
2023/10/26 05:23:05;;;;;;;12.93;5.00;;;;;;;20.55;54.97;94206.59;5995666;29;110635;-66
2023/10/26 05:26:08;;;;;;;12.03;5.40;;;;;;;20.58;54.75;94207.84;5994517;29;109487;-66
2023/10/26 05:29:13;;;;;;;11.57;5.50;;;;;;;20.53;54.85;94208.78;6014711;29;109252;-66
2023/10/26 05:32:16;;;;;;;11.77;5.93;;;;;;;20.54;55.23;94214.88;5978534;29;109783;-66
2023/10/26 05:35:19;;;;;;;11.27;5.00;;;;;;;20.53;55.19;94206.13;5995431;29;109408;-68
2023/10/26 05:38:23;;;;;;;11.40;5.55;;;;;;;20.50;55.22;94211.28;5995595;29;110072;-66
2023/10/26 05:41:26;;;;;;;10.93;4.60;;;;;;;20.51;55.11;94220.84;5988037;29;110117;-66
2023/10/26 05:44:31;;;;;;;12.32;5.40;;;;;;;20.63;54.34;94229.72;5993713;29;110232;-66
2023/10/26 05:47:34;;;;;;;13.50;5.60;;;;;;;20.65;54.73;94223.28;5995299;29;110279;-65
2023/10/26 05:50:41;;;;;;;11.10;6.23;;;;;;;20.68;55.08;94234.09;5995622;29;108974;-64
2023/10/26 05:53:44;;;;;;;12.10;5.90;;;;;;;20.66;55.28;94228.28;5984305;29;109269;-66
2023/10/26 05:56:48;;;;;;;13.98;5.78;;;;;;;20.65;54.66;94240.03;5995687;29;109088;-65
2023/10/26 05:59:53;;;;;;;12.82;5.00;;;;;;;20.69;54.68;94235.66;5994608;29;110208;-65
2023/10/26 06:02:56;;;;;;;15.48;5.65;;;;;;;20.70;54.72;94253.16;5995347;29;109055;-64
2023/10/26 06:06:00;;;;;;;14.68;5.20;;;;;;;20.69;55.57;94253.50;5984854;29;109511;-65
2023/10/26 06:09:03;;;;;;;14.20;5.00;;;;;;;20.68;55.38;94255.38;6011716;29;109300;-66
2023/10/26 06:12:07;;;;;;;12.23;4.97;;;;;;;20.75;54.81;94253.00;6017874;29;109012;-66
2023/10/26 06:15:12;;;;;;;13.15;5.20;;;;;;;20.78;55.15;94249.69;6013063;28;109233;-66
2023/10/26 06:18:15;;;;;;;14.43;7.33;;;;;;;20.77;54.40;94252.69;6013322;28;111477;-66
2023/10/26 06:21:18;;;;;;;15.73;7.82;;;;;;;20.76;54.66;94267.06;6018159;29;109021;-65
2023/10/26 06:24:22;;;;;;;13.65;8.30;;;;;;;20.80;55.03;94254.69;5998632;28;109253;-66
2023/10/26 06:27:25;;;;;;;13.57;8.00;;;;;;;20.78;54.86;94255.03;5983096;29;110394;-67
2023/10/26 06:30:29;;;;;;;14.95;7.00;;;;;;;20.80;54.70;94242.19;5993589;29;109297;-65
2023/10/26 06:33:33;;;;;;;11.83;6.97;;;;;;;20.86;54.23;94243.59;5994410;29;109049;-65
2023/10/26 06:36:36;;;;;;;15.75;9.57;;;;;;;20.92;54.41;94257.50;6003919;29;109451;-66
2023/10/26 06:39:39;;;;;;;16.13;10.95;;;;;;;20.92;54.42;94250.28;6007112;28;109196;-66
2023/10/26 06:42:42;;;;;;;15.90;10.47;;;;;;;21.03;54.39;94258.72;6018617;28;109850;-64
2023/10/26 06:45:47;;;;;;;18.07;10.03;;;;;;;21.10;54.00;94259.03;6018560;28;110105;-65
2023/10/26 06:48:50;;;;;;;18.87;12.50;;;;;;;21.18;54.09;94263.56;6018256;28;110264;-64
2023/10/26 06:56:19;;;;;;;18.87;11.73;;;;;;;21.40;53.40;94251.88;5983067;29;108839;-66
2023/10/26 06:59:22;;;;;;;15.40;9.97;;;;;;;21.51;53.35;94258.41;5995443;29;109423;-65
2023/10/26 07:02:26;;;;;;;13.70;10.60;;;;;;;21.56;54.19;94268.09;5983714;29;109139;-66
2023/10/26 07:05:29;;;;;;;16.20;11.03;;;;;;;21.56;53.72;94270.75;5995105;29;109469;-66
2023/10/26 07:08:33;;;;;;;18.00;12.73;;;;;;;21.56;53.41;94280.63;5995184;29;109106;-66
2023/10/26 07:11:37;;;;;;;16.60;12.50;;;;;;;21.53;53.83;94282.03;5992913;29;109440;-63
2023/10/26 07:14:40;;;;;;;18.20;13.47;;;;;;;21.54;53.79;94272.19;5987996;29;109975;-66
2023/10/26 07:17:45;;;;;;;17.07;12.70;;;;;;;21.58;53.93;94275.75;6011018;29;109333;-66
2023/10/26 07:20:48;;;;;;;15.37;11.60;;;;;;;21.59;53.91;94274.66;6016991;28;109100;-66
2023/10/26 07:23:53;;;;;;;19.90;14.00;;;;;;;21.61;54.28;94259.13;6008141;28;110260;-65
2023/10/26 07:26:56;;;;;;;16.37;13.33;;;;;;;21.61;53.72;94267.13;5997566;28;109262;-66
2023/10/26 07:30:00;;;;;;;18.00;12.87;;;;;;;21.57;53.84;94244.91;5995341;29;109143;-66
2023/10/26 07:33:04;;;;;;;20.97;13.70;;;;;;;21.58;54.01;94249.91;5994478;29;109115;-67
2023/10/26 07:36:08;;;;;;;20.43;13.07;;;;;;;21.56;54.18;94254.78;5984874;29;109234;-67
2023/10/26 07:39:11;;;;;;;17.43;12.73;;;;;;;21.58;54.00;94251.78;5995139;29;109192;-66
2023/10/26 07:42:35;;;;;;;18.83;11.60;;;;;;;21.56;53.63;94259.31;5995038;29;111122;-66
2023/10/26 07:45:39;;;;;;;16.17;11.70;;;;;;;21.55;53.70;94253.22;5993900;29;110329;-64
2023/10/26 07:48:43;;;;;;;17.40;11.10;;;;;;;21.54;53.50;94250.88;5986052;29;109031;-66
2023/10/26 07:51:47;;;;;;;14.10;11.30;;;;;;;21.52;53.46;94254.66;5994717;29;109161;-66
2023/10/26 07:54:50;;;;;;;17.90;13.03;;;;;;;21.52;53.41;94236.00;5994684;29;109273;-66
2023/10/26 07:57:54;;;;;;;19.40;13.67;;;;;;;21.50;53.63;94224.88;5984790;29;109105;-64
2023/10/26 08:00:57;;;;;;;19.90;17.37;;;;;;;21.49;54.25;94225.97;5993817;29;109449;-64
2023/10/26 08:04:02;;;;;;;19.70;16.50;;;;;;;21.50;53.69;94226.75;6017233;28;109094;-66
2023/10/26 08:07:05;;;;;;;22.13;18.20;;;;;;;21.48;53.51;94226.31;6017241;28;110028;-66
2023/10/26 08:10:10;;;;;;;19.23;14.90;;;;;;;21.46;54.46;94223.97;6006589;28;109225;-66
2023/10/26 08:13:13;;;;;;;16.20;13.23;;;;;;;21.46;53.85;94213.31;6017135;28;109064;-66
2023/10/26 08:16:16;;;;;;;19.57;17.53;;;;;;;21.51;53.95;94231.00;6017086;28;110233;-66
2023/10/26 08:19:41;;;;;;;19.20;14.73;;;;;;;21.59;54.21;94216.06;6017777;29;111821;-66
2023/10/26 08:22:44;;;;;;;18.17;13.30;;;;;;;21.62;53.73;94212.78;6007600;28;109358;-66
2023/10/26 08:25:47;;;;;;;14.57;11.10;;;;;;;21.64;54.54;94224.66;6008263;28;110137;-66
2023/10/26 08:28:50;;;;;;;14.77;12.50;;;;;;;21.65;54.81;94217.44;6014729;29;109313;-66
2023/10/26 08:32:12;;;;;;;18.20;12.70;;;;;;;21.71;54.46;94219.63;6008129;28;110188;-66
2023/10/26 08:35:17;;;;;;;16.77;13.93;;;;;;;21.73;54.20;94216.63;6020369;28;110171;-66
2023/10/26 08:38:20;;;;;;;15.37;12.70;;;;;;;21.75;54.68;94217.06;6020761;28;109217;-65
2023/10/26 08:41:23;;;;;;;15.53;13.10;;;;;;;21.81;54.83;94221.88;6019773;28;109066;-66
2023/10/26 08:44:27;;;;;;;16.03;13.80;;;;;;;21.85;54.13;94214.06;5987773;29;109578;-66
2023/10/26 08:47:32;;;;;;;20.17;16.03;;;;;;;21.86;54.25;94206.88;6007342;29;109142;-65
2023/10/26 08:50:38;;;;;;;16.87;15.17;;;;;;;21.84;54.89;94206.38;6020756;28;109193;-66
2023/10/26 08:53:42;;;;;;;15.77;14.27;;;;;;;21.82;54.31;94214.69;6020538;28;109437;-66
2023/10/26 08:56:45;;;;;;;16.23;14.63;;;;;;;21.81;54.70;94203.25;5997484;28;109099;-67
2023/10/26 08:59:48;;;;;;;18.10;13.87;;;;;;;21.79;54.35;94200.13;6020905;28;108873;-67
2023/10/26 09:02:51;;;;;;;15.57;12.90;;;;;;;21.79;54.18;94194.03;6020848;29;113496;-66
2023/10/26 09:05:57;;;;;;;15.20;13.60;;;;;;;21.82;54.68;94174.75;6012060;28;109960;-64
2023/10/26 09:09:02;;;;;;;16.50;13.67;;;;;;;21.87;55.19;94166.59;6020108;29;110094;-67
2023/10/26 09:12:10;;;;;;;15.00;12.37;;;;;;;21.93;55.09;94154.63;6015311;28;109264;-67
2023/10/26 09:15:13;;;;;;;14.90;13.00;;;;;;;21.97;54.91;94152.06;5997810;29;109310;-67
2023/10/26 09:18:16;;;;;;;13.73;12.33;;;;;;;22.01;54.73;94150.31;5987155;29;110113;-67
2023/10/26 09:21:21;;;;;;;14.63;12.60;;;;;;;22.04;54.61;94155.78;5997363;29;110069;-66
2023/10/26 09:24:26;;;;;;;13.70;11.60;;;;;;;22.08;54.57;94158.56;5997004;29;109153;-67
2023/10/26 09:27:29;;;;;;;16.50;12.10;;;;;;;22.10;54.80;94162.47;5996895;29;110221;-65
2023/10/26 09:30:33;;;;;;;13.53;12.10;;;;;;;22.16;54.19;94159.59;5987392;29;109684;-66
2023/10/26 09:33:36;;;;;;;14.70;11.73;;;;;;;22.19;54.42;94148.31;6012540;29;109122;-66
2023/10/26 09:36:41;;;;;;;16.03;11.00;;;;;;;22.24;54.65;94153.41;6019450;28;109273;-65
2023/10/26 09:39:44;;;;;;;12.77;11.50;;;;;;;22.27;54.49;94160.75;6014941;29;110191;-65
2023/10/26 09:42:48;;;;;;;14.07;10.93;;;;;;;22.29;54.18;94153.97;6005582;29;110374;-66
2023/10/26 09:45:52;;;;;;;12.40;10.70;;;;;;;22.32;53.81;94142.66;5996264;29;109274;-65
2023/10/26 09:48:56;;;;;;;12.50;10.30;;;;;;;22.35;53.83;94151.91;6014002;29;109020;-67
2023/10/26 09:52:00;;;;;;;12.03;10.83;;;;;;;22.32;54.17;94148.00;6009181;28;109627;-66
2023/10/26 09:55:06;;;;;;;14.40;10.40;;;;;;;22.35;54.12;94146.59;6018787;28;108965;-65
2023/10/26 09:58:11;;;;;;;13.33;9.87;;;;;;;22.34;54.35;94151.09;6007687;29;109137;-66
2023/10/26 10:01:36;;;;;;;11.23;9.70;;;;;;;22.34;54.10;94139.66;6019722;29;110218;-65
2023/10/26 10:04:39;;;;;;;11.63;10.13;;;;;;;22.31;53.76;94138.44;6008529;28;109126;-67
2023/10/26 10:07:45;;;;;;;17.00;10.70;;;;;;;22.27;53.64;94116.22;6018659;28;109251;-65
2023/10/26 10:11:17;;;;;;;12.80;9.50;;;;;;;22.24;54.12;94116.09;6019418;28;109262;-65
2023/10/26 10:14:55;;;;;;;11.50;9.07;;;;;;;22.22;54.05;94110.34;6009114;28;110417;-66
2023/10/26 10:18:17;;;;;;;12.70;10.47;;;;;;;22.19;54.13;94100.34;6019443;29;110046;-67
2023/10/26 10:21:36;;;;;;;11.37;9.27;;;;;;;22.17;53.73;94107.84;6019362;28;109331;-66
2023/10/26 10:24:54;;;;;;;10.60;9.47;;;;;;;22.17;53.99;94102.53;5997131;28;109314;-65
2023/10/26 10:28:10;;;;;;;11.53;9.07;;;;;;;22.15;53.57;94097.53;5989113;29;109063;-66
2023/10/26 10:31:22;;;;;;;9.73;8.40;;;;;;;22.13;53.97;94094.41;5996406;29;109286;-67
2023/10/26 10:34:30;;;;;;;10.80;8.13;;;;;;;22.13;53.06;94094.41;5995907;29;109224;-67
2023/10/26 10:37:33;;;;;;;9.33;8.30;;;;;;;22.11;53.13;94099.28;5985452;29;109257;-67
2023/10/26 10:40:38;;;;;;;10.70;8.33;;;;;;;22.08;52.76;94074.09;5995222;29;108868;-66
2023/10/26 10:43:44;;;;;;;11.27;6.90;;;;;;;22.08;52.14;94070.66;5995770;29;110238;-66
2023/10/26 10:46:48;;;;;;;11.37;7.00;;;;;;;22.08;51.84;94068.75;5995851;29;110235;-66
2023/10/26 10:49:51;;;;;;;7.77;6.97;;;;;;;22.11;52.00;94062.00;6006216;29;109091;-65
2023/10/26 10:52:56;;;;;;;9.00;6.43;;;;;;;22.11;51.70;94065.44;6018722;29;109453;-67
2023/10/26 10:56:01;;;;;;;8.13;6.50;;;;;;;22.11;51.88;94065.44;6010680;28;109228;-66
2023/10/26 10:59:17;;;;;;;8.00;6.70;;;;;;;22.11;51.89;94046.78;6005602;29;109033;-65
2023/10/26 11:02:20;;;;;;;7.63;5.97;;;;;;;22.10;51.41;94045.22;6013887;29;110395;-66
2023/10/26 11:05:36;;;;;;;6.60;5.90;;;;;;;22.12;51.89;94047.56;6018390;28;109050;-66
2023/10/26 11:08:39;;;;;;;7.07;6.37;;;;;;;22.09;51.26;94043.69;6018169;28;109037;-66
2023/10/26 11:11:44;;;;;;;6.50;5.80;;;;;;;22.11;51.77;94041.47;6007531;28;109077;-66
2023/10/26 11:14:49;;;;;;;9.80;6.00;;;;;;;22.10;51.81;94034.56;6017861;28;109176;-66
2023/10/26 11:17:52;;;;;;;7.40;6.17;;;;;;;22.11;51.73;94033.47;6018109;28;108983;-67
2023/10/26 11:20:55;;;;;;;6.50;5.70;;;;;;;22.09;51.39;94033.03;6018561;29;110437;-66
2023/10/26 11:23:58;;;;;;;6.73;5.73;;;;;;;22.08;51.20;94036.78;6007950;28;110131;-65
2023/10/26 11:27:12;;;;;;;9.33;8.37;;;;;;;22.09;51.16;94048.22;6002723;28;109194;-67
2023/10/26 11:30:15;;;;;;;9.57;8.50;;;;;;;22.07;51.38;94053.88;5995154;29;110234;-66
2023/10/26 11:33:31;;;;;;;8.40;7.33;;;;;;;22.06;51.05;94048.88;5989925;29;109258;-66
2023/10/26 11:36:35;;;;;;;9.03;8.03;;;;;;;22.06;50.91;94046.22;5991070;29;109048;-67
2023/10/26 11:39:49;;;;;;;9.10;7.37;;;;;;;22.04;50.69;94041.22;5994711;29;109200;-66
2023/10/26 11:42:58;;;;;;;8.90;6.90;;;;;;;22.04;50.12;94021.81;5994295;29;110128;-65
2023/10/26 11:46:02;;;;;;;8.00;7.30;;;;;;;22.03;50.06;94021.03;5984587;29;109498;-65
2023/10/26 11:49:06;;;;;;;11.40;8.63;;;;;;;22.02;50.61;94016.81;5994950;29;108876;-65
2023/10/26 11:52:09;;;;;;;10.50;9.60;;;;;;;22.02;50.05;94016.81;5994638;29;109280;-67
2023/10/26 11:55:14;;;;;;;11.83;10.70;;;;;;;22.01;50.31;94019.78;5994450;29;109129;-65
2023/10/26 11:58:19;;;;;;;11.47;10.47;;;;;;;22.00;49.70;94012.91;5967231;29;110273;-65
2023/10/26 12:01:22;;;;;;;12.87;11.67;;;;;;;21.99;50.12;94011.34;5994625;29;109489;-65
2023/10/26 12:04:25;;;;;;;11.37;10.33;;;;;;;21.99;49.61;94014.78;6009172;29;108957;-65
2023/10/26 12:07:28;;;;;;;11.87;10.37;;;;;;;21.99;49.85;94022.00;6014388;28;109836;-65
2023/10/26 12:10:32;;;;;;;10.23;9.43;;;;;;;21.98;49.89;94015.88;6016821;28;110093;-66
2023/10/26 12:13:37;;;;;;;9.53;8.73;;;;;;;21.97;49.47;94026.88;6021098;28;109176;-66
2023/10/26 12:16:40;;;;;;;8.67;7.77;;;;;;;21.97;49.37;94016.22;6021832;29;109777;-66
2023/10/26 12:19:44;;;;;;;8.33;7.53;;;;;;;21.97;49.37;94008.22;6011760;28;110113;-66
2023/10/26 12:22:48;;;;;;;8.90;8.10;;;;;;;21.98;49.20;94005.22;6021249;29;109215;-65
2023/10/26 12:25:51;;;;;;;10.03;9.13;;;;;;;21.97;49.45;94024.22;6017219;29;110189;-65
2023/10/26 12:28:56;;;;;;;9.37;8.33;;;;;;;21.97;49.08;94030.31;6006724;29;110113;-66
2023/10/26 12:31:59;;;;;;;9.30;8.20;;;;;;;21.97;48.75;94013.56;6011703;29;111060;-67
2023/10/26 12:35:03;;;;;;;9.83;7.83;;;;;;;21.96;48.76;94023.44;6004071;28;109062;-67
2023/10/26 12:38:06;;;;;;;9.03;8.13;;;;;;;21.97;48.62;94014.34;5998454;29;109954;-66
2023/10/26 12:41:09;;;;;;;9.53;7.97;;;;;;;21.94;48.63;94015.00;5994198;29;109978;-65
2023/10/26 12:44:15;;;;;;;7.40;6.50;;;;;;;21.95;48.80;94010.44;5991467;29;109314;-66
2023/10/26 12:47:19;;;;;;;8.50;7.23;;;;;;;21.96;48.60;94006.69;5998194;29;110100;-65
2023/10/26 12:50:22;;;;;;;7.30;6.50;;;;;;;21.95;48.78;93995.25;5998225;29;109321;-65
2023/10/26 12:53:25;;;;;;;6.97;6.30;;;;;;;21.94;48.89;93998.25;5987362;29;109169;-65
2023/10/26 12:56:28;;;;;;;6.73;5.97;;;;;;;21.94;48.65;93980.38;5997313;29;109225;-66
2023/10/26 12:59:32;;;;;;;6.93;5.90;;;;;;;21.95;48.92;93975.81;5997827;29;109167;-66
2023/10/26 13:02:36;;;;;;;7.20;5.53;;;;;;;21.95;48.35;93976.59;5997623;29;109255;-66
2023/10/26 13:05:39;;;;;;;7.13;5.60;;;;;;;21.94;48.55;93974.28;5987424;29;109961;-66
2023/10/26 13:08:43;;;;;;;5.67;4.90;;;;;;;21.94;48.17;93967.06;5997836;29;110388;-66
2023/10/26 13:11:46;;;;;;;5.00;4.47;;;;;;;21.94;48.53;93964.38;5997728;29;110007;-66
2023/10/26 13:14:50;;;;;;;5.53;4.47;;;;;;;21.95;48.57;93963.28;5996909;29;109551;-67
2023/10/26 13:18:04;;;;;;;6.40;4.60;;;;;;;21.95;48.20;93965.94;5986483;29;109243;-67
2023/10/26 13:21:07;;;;;;;6.90;4.90;;;;;;;21.95;48.02;93968.59;5997332;29;109108;-67
2023/10/26 13:24:11;;;;;;;7.83;5.40;;;;;;;21.95;48.04;93963.28;5997306;29;109298;-66
2023/10/26 13:27:14;;;;;;;6.40;5.30;;;;;;;21.96;48.24;93969.38;5988041;29;109091;-65
2023/10/26 13:30:19;;;;;;;7.53;4.73;;;;;;;21.95;48.11;93976.59;6012541;29;109129;-66
2023/10/26 13:33:22;;;;;;;5.43;4.80;;;;;;;21.96;47.88;93953.41;6018975;29;109219;-66
2023/10/26 13:36:26;;;;;;;6.80;4.37;;;;;;;21.95;47.76;93951.84;5997263;29;110151;-65
2023/10/26 13:39:29;;;;;;;5.97;4.37;;;;;;;21.95;48.11;93963.28;5987307;29;109132;-66
2023/10/26 13:42:32;;;;;;;4.80;4.30;;;;;;;21.95;48.22;93957.97;5997392;29;109743;-65
2023/10/26 13:45:37;;;;;;;5.80;4.20;;;;;;;21.95;47.61;93971.28;6014643;29;109103;-65
2023/10/26 13:48:40;;;;;;;4.80;3.70;;;;;;;21.95;48.04;93968.59;6019680;29;109059;-65
2023/10/26 13:51:43;;;;;;;5.30;3.90;;;;;;;21.96;47.70;93982.69;6009633;29;109131;-66
2023/10/26 13:54:47;;;;;;;5.30;3.90;;;;;;;21.95;47.86;93983.81;6019795;28;109082;-66
2023/10/26 13:57:50;;;;;;;4.07;3.00;;;;;;;21.95;47.92;93989.91;6001908;28;109368;-66
2023/10/26 14:00:54;;;;;;;4.33;3.47;;;;;;;21.94;47.62;93983.03;5992263;29;109978;-65
2023/10/26 14:03:58;;;;;;;3.70;2.80;;;;;;;21.92;47.40;93985.25;5995783;29;110051;-66
2023/10/26 14:07:01;;;;;;;5.17;3.83;;;;;;;21.91;47.82;93977.59;6020111;28;109381;-66
2023/10/26 14:10:06;;;;;;;5.33;3.23;;;;;;;21.90;47.87;93973.38;6019385;29;110311;-65
2023/10/26 14:13:09;;;;;;;4.70;3.13;;;;;;;21.90;47.85;93970.72;6009187;29;110213;-65